createdAt,value
2023-05-09T00:01:46.420Z,97.32
2023-05-09T00:04:12.796Z,97.53
2023-05-09T00:06:39.113Z,97.72
2023-05-09T00:09:05.188Z,98.20
2023-05-09T00:11:31.605Z,99.58
2023-05-09T00:13:57.862Z,97.52
2023-05-09T00:16:24.413Z,97.86
2023-05-09T00:18:50.521Z,97.89
2023-05-09T00:21:16.864Z,99.37
2023-05-09T00:23:42.935Z,99.03
2023-05-09T00:26:09.755Z,99.24
2023-05-09T00:28:36.652Z,98.54
2023-05-09T00:31:04.755Z,98.18
2023-05-09T00:33:30.840Z,98.70
2023-05-09T00:35:57.322Z,99.36
2023-05-09T00:38:23.588Z,99.04
2023-05-09T00:40:50.062Z,100.00
2023-05-09T00:43:16.734Z,99.82
2023-05-09T00:45:44.833Z,99.57
2023-05-09T00:48:11.193Z,99.19
2023-05-09T00:50:37.673Z,99.65
2023-05-09T00:53:04.402Z,99.72
2023-05-09T00:55:31.589Z,100.00
2023-05-09T00:57:58.039Z,99.56
2023-05-09T01:00:24.631Z,99.94
2023-05-09T01:02:54.248Z,99.33
2023-05-09T01:05:24.354Z,99.79
2023-05-09T01:08:06.678Z,100.00
2023-05-09T01:11:03.279Z,100.00
2023-05-09T01:14:05.871Z,100.00
2023-05-09T01:16:49.324Z,100.00
2023-05-09T01:19:40.280Z,98.92
2023-05-09T01:22:08.451Z,98.25
2023-05-09T01:24:59.465Z,98.86
2023-05-09T01:28:03.505Z,98.45
2023-05-09T01:30:31.188Z,99.26
2023-05-09T01:33:01.240Z,98.71
2023-05-09T01:35:30.777Z,98.47
2023-05-09T01:37:58.651Z,98.27
2023-05-09T01:40:30.825Z,97.64
2023-05-09T01:43:01.225Z,97.02
2023-05-09T01:45:28.584Z,96.88
2023-05-09T01:47:57.084Z,97.04
2023-05-09T01:50:24.439Z,96.81
2023-05-09T01:52:54.230Z,98.17
2023-05-09T01:55:24.865Z,98.40
2023-05-09T01:57:53.235Z,97.61
2023-05-09T02:00:20.497Z,97.62
2023-05-09T02:02:47.743Z,98.77
2023-05-09T02:05:16.977Z,99.09
2023-05-09T02:07:45.975Z,99.23
2023-05-09T02:10:14.620Z,99.94
2023-05-09T02:12:41.247Z,99.58
2023-05-09T02:15:08.184Z,100.00
2023-05-09T02:17:39.694Z,100.00
2023-05-09T02:20:09.107Z,100.00
2023-05-09T02:22:35.999Z,99.50
2023-05-09T02:25:04.167Z,100.00
2023-05-09T02:27:33.211Z,100.00
2023-05-09T02:30:03.357Z,100.00
2023-05-09T02:32:33.250Z,100.00
2023-05-09T02:35:01.155Z,100.00
2023-05-09T02:37:27.899Z,98.85
2023-05-09T02:39:54.796Z,98.93
2023-05-09T02:42:25.806Z,99.27
2023-05-09T02:44:53.019Z,99.37
2023-05-09T02:47:19.926Z,99.78
2023-05-09T02:49:47.165Z,99.65
2023-05-09T02:52:14.117Z,100.00
2023-05-09T02:54:40.225Z,100.00
2023-05-09T02:57:06.650Z,99.50
2023-05-09T02:59:32.941Z,98.77
2023-05-09T03:02:01.742Z,99.54
2023-05-09T03:04:28.834Z,99.55
2023-05-09T03:06:55.479Z,100.00
2023-05-09T03:09:21.768Z,100.00
2023-05-09T03:11:49.405Z,100.00
2023-05-09T03:14:15.569Z,100.00
2023-05-09T03:16:42.066Z,100.00
2023-05-09T03:19:17.940Z,99.47
2023-05-09T03:21:44.301Z,99.72
2023-05-09T03:24:10.470Z,99.78
2023-05-09T03:26:36.864Z,100.00
2023-05-09T03:29:03.202Z,100.00
2023-05-09T03:31:29.710Z,100.00
2023-05-09T03:33:55.905Z,99.71
2023-05-09T03:36:22.563Z,100.00
2023-05-09T03:38:49.333Z,100.00
2023-05-09T03:41:17.897Z,100.00
2023-05-09T03:43:46.457Z,100.00
2023-05-09T03:46:12.880Z,100.00
2023-05-09T03:48:39.481Z,100.00
2023-05-09T03:51:06.450Z,100.00
2023-05-09T03:53:36.393Z,100.00
2023-05-09T03:56:02.845Z,99.89
2023-05-09T03:58:32.827Z,100.00
2023-05-09T04:00:59.944Z,100.00
2023-05-09T04:03:26.221Z,99.17
2023-05-09T04:05:54.233Z,98.82
2023-05-09T04:08:27.972Z,97.64
2023-05-09T04:10:54.331Z,97.07
2023-05-09T04:13:21.083Z,97.19
2023-05-09T04:15:47.448Z,97.08
2023-05-09T04:18:13.834Z,96.70
2023-05-09T04:20:40.240Z,95.96
2023-05-09T04:23:06.440Z,95.62
2023-05-09T04:25:34.771Z,95.47
2023-05-09T04:28:01.944Z,95.28
2023-05-09T04:30:28.861Z,95.09
2023-05-09T04:32:55.717Z,95.61
2023-05-09T04:35:22.680Z,96.19
2023-05-09T04:37:51.455Z,95.80
2023-05-09T04:40:18.358Z,95.28
2023-05-09T04:43:10.858Z,95.07
2023-05-09T04:45:37.342Z,94.70
2023-05-09T04:48:03.780Z,95.06
2023-05-09T04:50:30.563Z,94.97
2023-05-09T04:52:56.785Z,94.26
2023-05-09T04:55:23.586Z,94.32
2023-05-09T04:57:50.913Z,93.13
2023-05-09T05:00:18.600Z,92.90
2023-05-09T05:02:47.160Z,92.33
2023-05-09T05:05:14.319Z,91.22
2023-05-09T05:07:42.579Z,90.76
2023-05-09T05:10:12.744Z,90.78
2023-05-09T05:12:41.648Z,90.03
2023-05-09T05:15:11.582Z,89.56
2023-05-09T05:17:39.083Z,89.71
2023-05-09T05:20:09.774Z,88.98
2023-05-09T05:22:40.135Z,88.66
2023-05-09T05:25:07.374Z,87.91
2023-05-09T05:27:34.925Z,87.68
2023-05-09T05:30:01.624Z,87.82
2023-05-09T05:32:28.210Z,88.32
2023-05-09T05:34:54.888Z,87.37
2023-05-09T05:37:21.219Z,87.37
2023-05-09T05:39:47.959Z,86.94
2023-05-09T05:42:14.091Z,86.18
2023-05-09T05:44:40.650Z,81.49
2023-05-09T05:47:08.150Z,66.55
2023-05-09T05:49:34.544Z,58.21
2023-05-09T05:52:00.673Z,53.96
2023-05-09T05:54:27.517Z,51.02
2023-05-09T05:56:54.063Z,48.38
2023-05-09T05:59:20.530Z,46.13
2023-05-09T06:01:46.849Z,45.78
2023-05-09T06:04:13.744Z,46.11
2023-05-09T06:06:41.793Z,45.84
2023-05-09T06:09:08.169Z,44.95
2023-05-09T06:11:34.902Z,45.53
2023-05-09T06:14:03.017Z,44.42
2023-05-09T06:16:29.356Z,44.80
2023-05-09T06:18:56.304Z,43.65
2023-05-09T06:21:22.827Z,42.65
2023-05-09T06:24:05.912Z,42.05
2023-05-09T06:26:34.695Z,41.00
2023-05-09T06:29:01.208Z,41.47
2023-05-09T06:31:27.347Z,42.71
2023-05-09T06:33:53.826Z,42.26
2023-05-09T06:36:19.965Z,42.68
2023-05-09T06:38:46.383Z,44.44
2023-05-09T06:41:12.515Z,42.85
2023-05-09T06:43:39.133Z,42.73
2023-05-09T06:46:05.255Z,42.73
2023-05-09T06:48:31.685Z,41.92
2023-05-09T06:50:57.778Z,40.81
2023-05-09T06:53:24.206Z,41.77
2023-05-09T06:55:50.327Z,41.22
2023-05-09T06:58:16.759Z,41.18
2023-05-09T07:00:42.890Z,40.72
2023-05-09T07:03:09.934Z,41.96
2023-05-09T07:05:36.076Z,40.51
2023-05-09T07:08:03.333Z,41.28
2023-05-09T07:10:29.669Z,41.96
2023-05-09T07:12:56.222Z,41.60
2023-05-09T07:15:32.813Z,42.04
2023-05-09T07:18:07.100Z,41.12
2023-05-09T07:20:33.271Z,40.77
2023-05-09T07:22:59.809Z,40.73
2023-05-09T07:25:25.968Z,41.79
2023-05-09T07:27:52.430Z,41.31
2023-05-09T07:30:18.584Z,41.51
2023-05-09T07:32:44.995Z,41.23
2023-05-09T07:35:11.062Z,41.29
2023-05-09T07:37:37.474Z,42.31
2023-05-09T07:40:05.352Z,42.74
2023-05-09T07:42:32.378Z,41.60
2023-05-09T07:44:59.593Z,39.66
2023-05-09T07:47:26.142Z,40.92
2023-05-09T07:49:52.307Z,41.81
2023-05-09T07:52:18.643Z,39.21
2023-05-09T07:54:44.869Z,39.92
2023-05-09T07:57:11.176Z,40.81
2023-05-09T07:59:37.302Z,39.59
2023-05-09T08:02:03.693Z,40.14
2023-05-09T08:04:29.856Z,39.44
2023-05-09T08:06:57.004Z,38.88
2023-05-09T08:09:23.110Z,39.71
2023-05-09T08:11:49.617Z,38.87
2023-05-09T08:14:15.809Z,39.93
2023-05-09T08:16:42.678Z,40.28
2023-05-09T08:19:09.163Z,39.70
2023-05-09T08:21:35.755Z,38.80
2023-05-09T08:24:01.886Z,40.28
2023-05-09T08:26:28.295Z,40.48
2023-05-09T08:28:54.614Z,40.43
2023-05-09T08:31:21.166Z,40.47
2023-05-09T08:33:47.337Z,42.13
2023-05-09T08:36:13.866Z,42.44
2023-05-09T08:38:40.744Z,41.83
2023-05-09T08:41:07.317Z,42.32
2023-05-09T08:43:35.493Z,43.24
2023-05-09T08:46:07.843Z,43.20
2023-05-09T08:48:37.979Z,44.38
2023-05-09T08:51:05.412Z,42.17
2023-05-09T08:53:32.232Z,41.88
2023-05-09T08:56:00.947Z,41.36
2023-05-09T08:58:27.644Z,40.22
2023-05-09T09:00:57.554Z,40.99
2023-05-09T09:03:26.565Z,41.65
2023-05-09T09:05:54.132Z,41.33
2023-05-09T09:08:22.189Z,40.61
2023-05-09T09:10:48.916Z,41.54
2023-05-09T09:13:17.334Z,41.87
2023-05-09T09:15:46.264Z,42.72
2023-05-09T09:18:19.925Z,42.83
2023-05-09T09:20:56.050Z,42.02
2023-05-09T09:23:24.792Z,42.43
2023-05-09T09:26:01.647Z,43.69
2023-05-09T09:28:27.967Z,43.12
2023-05-09T09:30:54.352Z,42.27
2023-05-09T09:33:21.767Z,43.02
2023-05-09T09:35:50.381Z,41.96
2023-05-09T09:38:21.353Z,42.30
2023-05-09T09:40:50.720Z,43.66
2023-05-09T09:43:17.144Z,42.83
2023-05-09T09:45:49.152Z,43.44
2023-05-09T09:48:15.685Z,43.56
2023-05-09T09:50:42.162Z,43.19
2023-05-09T09:53:08.331Z,42.93
2023-05-09T09:55:35.015Z,43.79
2023-05-09T09:58:01.147Z,44.23
2023-05-09T10:00:28.005Z,44.12
2023-05-09T10:02:58.622Z,44.28
2023-05-09T10:05:29.513Z,42.70
2023-05-09T10:08:00.386Z,43.36
2023-05-09T10:10:28.732Z,43.37
2023-05-09T10:12:58.008Z,46.49
2023-05-09T10:15:26.349Z,45.02
2023-05-09T10:17:55.694Z,45.21
2023-05-09T10:20:22.782Z,44.56
2023-05-09T10:22:53.190Z,44.81
2023-05-09T10:25:21.488Z,45.14
2023-05-09T10:27:48.614Z,46.13
2023-05-09T10:30:21.714Z,46.75
2023-05-09T10:32:51.706Z,46.13
2023-05-09T10:35:21.107Z,44.99
2023-05-09T10:37:47.493Z,45.13
2023-05-09T10:40:14.919Z,45.83
2023-05-09T10:42:44.312Z,46.00
2023-05-09T10:45:11.833Z,45.81
2023-05-09T10:47:41.582Z,45.08
2023-05-09T10:50:11.740Z,46.40
2023-05-09T10:53:16.410Z,44.98
2023-05-09T10:55:46.125Z,45.29
2023-05-09T10:58:25.563Z,45.20
2023-05-09T11:00:57.040Z,44.57
2023-05-09T11:03:25.307Z,46.26
2023-05-09T11:05:54.623Z,46.51
2023-05-09T11:08:29.431Z,45.82
2023-05-09T11:10:59.788Z,47.82
2023-05-09T11:13:31.705Z,45.32
2023-05-09T11:16:01.224Z,45.38
2023-05-09T11:18:32.063Z,45.34
2023-05-09T11:20:59.184Z,45.75
2023-05-09T11:23:26.610Z,45.19
2023-05-09T11:26:03.710Z,44.83
2023-05-09T11:28:32.845Z,44.90
2023-05-09T11:31:14.459Z,43.08
2023-05-09T11:33:44.138Z,44.68
2023-05-09T11:36:31.589Z,45.55
2023-05-09T11:39:07.911Z,46.04
2023-05-09T11:41:46.127Z,44.82
2023-05-09T11:44:21.259Z,44.46
2023-05-09T11:46:48.681Z,44.33
2023-05-09T11:49:15.221Z,43.71
2023-05-09T11:51:41.930Z,44.42
2023-05-09T11:54:10.605Z,45.57
2023-05-09T11:56:40.113Z,45.16
2023-05-09T11:59:07.751Z,44.75
2023-05-09T12:04:02.575Z,46.72
2023-05-09T12:06:29.341Z,45.17
2023-05-09T12:08:59.192Z,44.17
2023-05-09T12:11:25.524Z,44.75
2023-05-09T12:13:52.373Z,44.88
2023-05-09T12:16:20.626Z,42.96
2023-05-09T12:18:49.576Z,44.71
2023-05-09T12:21:17.793Z,44.36
2023-05-09T12:23:47.468Z,45.13
2023-05-09T12:26:15.063Z,43.50
2023-05-09T12:28:42.899Z,42.66
2023-05-09T12:31:09.805Z,43.35
2023-05-09T12:33:38.176Z,44.13
2023-05-09T12:36:11.590Z,45.63
2023-05-09T12:38:38.593Z,44.26
2023-05-09T12:41:18.805Z,44.19
2023-05-09T12:43:57.620Z,44.83
2023-05-09T12:46:24.442Z,43.03
2023-05-09T12:48:51.417Z,42.81
2023-05-09T12:51:21.841Z,42.66
2023-05-09T12:53:48.617Z,43.47
2023-05-09T12:56:16.820Z,44.71
2023-05-09T12:58:54.084Z,44.21
2023-05-09T13:01:28.147Z,44.85
2023-05-09T13:04:03.172Z,42.76
2023-05-09T13:06:30.086Z,43.03
2023-05-09T13:09:01.879Z,43.62
2023-05-09T13:11:29.074Z,43.36
2023-05-09T13:13:55.724Z,43.35
2023-05-09T13:16:22.156Z,43.88
2023-05-09T13:18:48.846Z,42.37
2023-05-09T13:21:14.994Z,42.32
2023-05-09T13:23:41.520Z,43.41
2023-05-09T13:26:08.159Z,42.21
2023-05-09T13:28:34.784Z,42.75
2023-05-09T13:31:02.175Z,42.65
2023-05-09T13:33:28.625Z,42.57
2023-05-09T13:36:07.215Z,42.86
2023-05-09T13:38:38.051Z,43.69
2023-05-09T13:41:04.255Z,42.37
2023-05-09T13:43:30.641Z,43.07
2023-05-09T13:45:56.896Z,43.02
2023-05-09T13:48:23.536Z,44.02
2023-05-09T13:50:50.380Z,43.22
2023-05-09T13:53:16.898Z,43.11
2023-05-09T13:55:43.656Z,43.18
2023-05-09T13:58:10.772Z,42.84
2023-05-09T14:00:36.950Z,42.74
2023-05-09T14:03:03.570Z,43.72
2023-05-09T14:05:32.859Z,42.91
2023-05-09T14:08:00.832Z,43.30
2023-05-09T14:10:27.056Z,42.03
2023-05-09T14:12:54.188Z,42.50
2023-05-09T14:15:20.479Z,42.23
2023-05-09T14:17:47.318Z,41.85
2023-05-09T14:20:15.164Z,43.48
2023-05-09T14:22:41.985Z,44.59
2023-05-09T14:25:08.361Z,42.65
2023-05-09T14:27:37.783Z,41.83
2023-05-09T14:30:04.761Z,42.11
2023-05-09T14:32:31.998Z,42.40
2023-05-09T14:34:58.205Z,42.77
2023-05-09T14:37:24.824Z,42.29
2023-05-09T14:39:51.011Z,41.74
2023-05-09T14:42:18.981Z,42.16
2023-05-09T14:44:46.530Z,42.50
2023-05-09T14:47:13.042Z,44.41
2023-05-09T14:49:39.399Z,42.78
2023-05-09T14:52:05.848Z,43.70
2023-05-09T14:54:32.305Z,43.26
2023-05-09T14:57:01.169Z,42.00
2023-05-09T14:59:27.455Z,42.26
2023-05-09T15:01:54.273Z,42.73
2023-05-09T15:04:20.672Z,42.64
2023-05-09T15:06:47.245Z,42.80
2023-05-09T15:09:14.071Z,42.81
2023-05-09T15:11:47.630Z,43.53
2023-05-09T15:14:15.672Z,43.67
2023-05-09T15:16:42.277Z,43.23
2023-05-09T15:19:08.571Z,44.76
2023-05-09T15:21:35.310Z,43.74
2023-05-09T15:24:01.597Z,43.86
2023-05-09T15:26:28.177Z,44.06
2023-05-09T15:28:54.293Z,43.16
2023-05-09T15:31:22.568Z,43.95
2023-05-09T15:33:48.693Z,44.97
2023-05-09T15:36:15.064Z,43.54
2023-05-09T15:38:41.494Z,44.00
2023-05-09T15:41:08.492Z,44.41
2023-05-09T15:43:34.589Z,44.44
2023-05-09T15:46:01.857Z,44.29
2023-05-09T15:48:27.976Z,43.45
2023-05-09T15:50:54.467Z,43.89
2023-05-09T15:53:22.405Z,44.47
2023-05-09T15:55:49.083Z,44.65
2023-05-09T15:58:15.724Z,44.36
2023-05-09T16:00:42.232Z,44.74
2023-05-09T16:03:08.464Z,44.22
2023-05-09T16:05:35.016Z,44.72
2023-05-09T16:08:01.444Z,44.18
2023-05-09T16:10:27.873Z,44.11
2023-05-09T16:12:54.020Z,44.69
2023-05-09T16:15:20.783Z,45.42
2023-05-09T16:17:46.965Z,45.30
2023-05-09T16:20:13.814Z,45.46
2023-05-09T16:22:40.637Z,45.38
2023-05-09T16:25:07.556Z,45.17
2023-05-09T16:27:33.844Z,45.32
2023-05-09T16:30:00.668Z,45.37
2023-05-09T16:32:27.023Z,45.01
2023-05-09T16:34:53.787Z,46.61
2023-05-09T16:37:20.085Z,46.48
2023-05-09T16:39:46.564Z,46.25
2023-05-09T16:42:14.108Z,46.17
2023-05-09T16:44:40.645Z,45.86
2023-05-09T16:47:06.884Z,46.34
2023-05-09T16:49:33.761Z,46.56
2023-05-09T16:51:59.963Z,46.90
2023-05-09T16:54:26.626Z,46.43
2023-05-09T16:56:53.357Z,45.56
2023-05-09T16:59:20.124Z,46.26
2023-05-09T17:01:47.016Z,45.99
2023-05-09T17:04:14.077Z,46.52
2023-05-09T17:06:40.379Z,45.90
2023-05-09T17:09:07.354Z,45.86
2023-05-09T17:11:33.555Z,46.59
2023-05-09T17:14:02.228Z,47.21
2023-05-09T17:16:28.774Z,46.84
2023-05-09T17:18:55.640Z,47.55
2023-05-09T17:21:24.153Z,46.86
2023-05-09T17:23:53.226Z,48.31
2023-05-09T17:26:20.572Z,47.68
2023-05-09T17:28:48.103Z,48.45
2023-05-09T17:31:14.351Z,48.93
2023-05-09T17:33:42.717Z,48.28
2023-05-09T17:36:09.128Z,48.55
2023-05-09T17:38:35.960Z,48.89
2023-05-09T17:41:03.474Z,48.68
2023-05-09T17:43:31.222Z,49.46
2023-05-09T17:45:58.095Z,49.35
2023-05-09T17:48:24.962Z,50.42
2023-05-09T17:50:51.255Z,49.35
2023-05-09T17:53:18.250Z,49.63
2023-05-09T17:55:44.637Z,50.32
2023-05-09T17:58:11.396Z,50.33
2023-05-09T18:00:37.942Z,50.73
2023-05-09T18:03:04.591Z,51.06
2023-05-09T18:05:31.396Z,51.27
2023-05-09T18:08:00.473Z,51.82
2023-05-09T18:10:28.017Z,51.66
2023-05-09T18:12:54.820Z,51.95
2023-05-09T18:15:21.213Z,52.76
2023-05-09T18:17:48.753Z,52.80
2023-05-09T18:20:15.437Z,53.03
2023-05-09T18:22:42.204Z,52.65
2023-05-09T18:25:09.347Z,53.99
2023-05-09T18:27:36.225Z,54.10
2023-05-09T18:30:06.518Z,53.39
2023-05-09T18:32:34.804Z,54.06
2023-05-09T18:35:01.302Z,53.87
2023-05-09T18:37:28.318Z,54.80
2023-05-09T18:39:54.666Z,54.42
2023-05-09T18:42:21.464Z,54.78
2023-05-09T18:44:47.784Z,54.81
2023-05-09T18:47:15.104Z,55.57
2023-05-09T18:49:41.837Z,55.88
2023-05-09T18:52:10.361Z,55.64
2023-05-09T18:54:39.182Z,55.30
2023-05-09T18:57:06.058Z,55.96
2023-05-09T18:59:32.566Z,56.48
2023-05-09T19:01:59.280Z,56.49
2023-05-09T19:04:26.223Z,57.14
2023-05-09T19:06:53.212Z,56.63
2023-05-09T19:09:19.709Z,56.71
2023-05-09T19:11:49.133Z,56.49
2023-05-09T19:14:15.900Z,56.67
2023-05-09T19:16:42.590Z,57.19
2023-05-09T19:19:09.116Z,56.21
2023-05-09T19:21:36.146Z,56.76
2023-05-09T19:24:04.129Z,56.83
2023-05-09T19:26:30.867Z,56.18
2023-05-09T19:28:57.484Z,55.60
2023-05-09T19:31:24.878Z,56.59
2023-05-09T19:33:51.385Z,57.30
2023-05-09T19:36:18.776Z,56.78
2023-05-09T19:38:45.609Z,56.87
2023-05-09T19:41:13.307Z,56.90
2023-05-09T19:43:39.820Z,57.29
2023-05-09T19:46:07.086Z,57.19
2023-05-09T19:48:35.250Z,57.31
2023-05-09T19:51:07.531Z,57.84
2023-05-09T19:53:34.114Z,58.68
2023-05-09T19:56:00.744Z,57.47
2023-05-09T19:58:27.277Z,58.12
2023-05-09T20:00:56.167Z,57.68
2023-05-09T20:03:22.966Z,58.51
2023-05-09T20:05:50.443Z,58.50
2023-05-09T20:08:16.951Z,57.94
2023-05-09T20:10:43.839Z,58.23
2023-05-09T20:13:10.471Z,57.35
2023-05-09T20:15:39.242Z,57.80
2023-05-09T20:18:06.792Z,58.89
2023-05-09T20:20:33.644Z,58.48
2023-05-09T20:23:00.142Z,58.86
2023-05-09T20:25:27.076Z,58.94
2023-05-09T20:27:53.462Z,59.35
2023-05-09T20:30:22.296Z,59.43
2023-05-09T20:32:48.682Z,58.64
2023-05-09T20:35:15.598Z,59.10
2023-05-09T20:37:42.425Z,58.93
2023-05-09T20:40:09.436Z,60.03
2023-05-09T20:42:35.873Z,59.73
2023-05-09T20:45:03.130Z,59.67
2023-05-09T20:47:29.652Z,59.09
2023-05-09T20:49:58.407Z,60.16
2023-05-09T20:52:25.420Z,60.51
2023-05-09T20:54:52.179Z,60.28
2023-05-09T20:57:18.870Z,60.84
2023-05-09T20:59:45.658Z,60.78
2023-05-09T21:02:13.057Z,60.42
2023-05-09T21:04:40.459Z,60.22
2023-05-09T21:07:09.277Z,59.97
2023-05-09T21:09:36.478Z,61.21
2023-05-09T21:12:04.082Z,60.57
2023-05-09T21:14:31.432Z,60.88
2023-05-09T21:16:58.062Z,61.37
2023-05-09T21:19:24.865Z,61.07
2023-05-09T21:21:51.141Z,61.70
2023-05-09T21:24:17.753Z,61.24
2023-05-09T21:26:44.241Z,61.15
2023-05-09T21:29:11.229Z,60.73
2023-05-09T21:31:41.062Z,61.71
2023-05-09T21:34:09.749Z,61.75
2023-05-09T21:36:37.723Z,61.77
2023-05-09T21:39:09.031Z,61.81
2023-05-09T21:41:41.661Z,61.00
2023-05-09T21:44:10.476Z,62.00
2023-05-09T21:46:40.695Z,61.66
2023-05-09T21:49:10.459Z,61.01
2023-05-09T21:51:36.634Z,61.92
2023-05-09T21:54:03.240Z,61.52
2023-05-09T21:56:29.349Z,61.72
2023-05-09T21:58:55.706Z,61.69
2023-05-09T22:01:34.170Z,62.00
2023-05-09T22:04:01.287Z,61.94
2023-05-09T22:06:27.572Z,61.41
2023-05-09T22:08:53.997Z,62.03
2023-05-09T22:11:20.460Z,62.58
2023-05-09T22:13:46.899Z,61.72
2023-05-09T22:16:13.142Z,62.11
2023-05-09T22:18:39.915Z,62.26
2023-05-09T22:21:06.292Z,62.73
2023-05-09T22:23:32.775Z,62.31
2023-05-09T22:25:58.904Z,63.44
2023-05-09T22:28:25.257Z,63.18
2023-05-09T22:30:51.541Z,63.17
2023-05-09T22:33:17.928Z,62.81
2023-05-09T22:35:45.230Z,62.61
2023-05-09T22:38:11.678Z,63.36
2023-05-09T22:40:37.905Z,64.05
2023-05-09T22:43:04.774Z,63.24
2023-05-09T22:45:30.890Z,63.78
2023-05-09T22:47:57.361Z,63.73
2023-05-09T22:50:25.138Z,63.91
2023-05-09T22:52:51.731Z,64.26
2023-05-09T22:55:18.587Z,63.07
2023-05-09T22:57:45.128Z,63.48
2023-05-09T23:00:12.021Z,64.29
2023-05-09T23:02:38.429Z,64.06
2023-05-09T23:05:05.561Z,63.97
2023-05-09T23:07:32.216Z,63.57
2023-05-09T23:09:58.641Z,63.66
2023-05-09T23:12:25.028Z,63.84
2023-05-09T23:14:51.181Z,63.74
2023-05-09T23:17:17.779Z,63.92
2023-05-09T23:19:45.191Z,64.91
2023-05-09T23:22:11.688Z,64.26
2023-05-09T23:24:37.813Z,64.59
2023-05-09T23:27:04.357Z,64.46
2023-05-09T23:29:30.514Z,64.35
2023-05-09T23:31:56.944Z,64.78
2023-05-09T23:34:23.078Z,65.10
2023-05-09T23:36:49.393Z,64.86
2023-05-09T23:39:15.568Z,65.15
2023-05-09T23:41:42.405Z,65.52
2023-05-09T23:44:08.674Z,65.18
2023-05-09T23:46:35.135Z,65.49
2023-05-09T23:49:01.275Z,65.18
2023-05-09T23:51:27.702Z,65.37
2023-05-09T23:53:53.704Z,65.49
2023-05-09T23:56:20.592Z,64.80
2023-05-09T23:58:46.634Z,65.94
